sensor_id;sensor_type;location;lat;lon;timestamp;P1;durP1;ratioP1;P2;durP2;ratioP2
71959;SDS011;59832;51.146;14.024;2023-12-29T00:00:08;2.08;;;1.10;;
71959;SDS011;59832;51.146;14.024;2023-12-29T00:02:35;1.15;;;1.00;;
71959;SDS011;59832;51.146;14.024;2023-12-29T00:05:01;2.80;;;1.27;;
71959;SDS011;59832;51.146;14.024;2023-12-29T00:07:29;2.50;;;1.30;;
71959;SDS011;59832;51.146;14.024;2023-12-29T00:09:55;1.53;;;1.30;;
71959;SDS011;59832;51.146;14.024;2023-12-29T00:12:22;2.00;;;1.10;;
71959;SDS011;59832;51.146;14.024;2023-12-29T00:14:48;2.35;;;0.98;;
71959;SDS011;59832;51.146;14.024;2023-12-29T00:17:15;2.53;;;1.23;;
71959;SDS011;59832;51.146;14.024;2023-12-29T00:19:42;2.35;;;1.20;;
71959;SDS011;59832;51.146;14.024;2023-12-29T00:22:08;1.92;;;1.17;;
71959;SDS011;59832;51.146;14.024;2023-12-29T00:24:35;1.50;;;1.20;;
71959;SDS011;59832;51.146;14.024;2023-12-29T00:27:02;2.67;;;1.20;;
71959;SDS011;59832;51.146;14.024;2023-12-29T00:29:28;1.30;;;1.00;;
71959;SDS011;59832;51.146;14.024;2023-12-29T00:31:59;2.47;;;1.35;;
71959;SDS011;59832;51.146;14.024;2023-12-29T00:34:27;1.52;;;1.00;;
71959;SDS011;59832;51.146;14.024;2023-12-29T00:36:53;2.53;;;1.20;;
71959;SDS011;59832;51.146;14.024;2023-12-29T00:39:20;2.03;;;1.20;;
71959;SDS011;59832;51.146;14.024;2023-12-29T00:41:55;1.30;;;1.10;;
71959;SDS011;59832;51.146;14.024;2023-12-29T00:44:24;2.33;;;1.40;;
71959;SDS011;59832;51.146;14.024;2023-12-29T00:46:50;1.67;;;1.15;;
71959;SDS011;59832;51.146;14.024;2023-12-29T00:49:17;2.20;;;1.20;;
71959;SDS011;59832;51.146;14.024;2023-12-29T00:51:44;2.25;;;1.15;;
71959;SDS011;59832;51.146;14.024;2023-12-29T00:54:10;1.33;;;1.10;;
71959;SDS011;59832;51.146;14.024;2023-12-29T00:56:37;1.67;;;1.23;;
71959;SDS011;59832;51.146;14.024;2023-12-29T00:59:03;2.70;;;1.10;;
71959;SDS011;59832;51.146;14.024;2023-12-29T01:01:34;1.27;;;1.00;;
71959;SDS011;59832;51.146;14.024;2023-12-29T01:04:01;2.28;;;1.02;;
71959;SDS011;59832;51.146;14.024;2023-12-29T01:06:28;1.55;;;1.20;;
71959;SDS011;59832;51.146;14.024;2023-12-29T01:08:55;1.17;;;1.00;;
71959;SDS011;59832;51.146;14.024;2023-12-29T01:11:21;1.70;;;1.10;;
71959;SDS011;59832;51.146;14.024;2023-12-29T01:13:48;1.93;;;1.20;;
71959;SDS011;59832;51.146;14.024;2023-12-29T01:16:14;1.40;;;1.10;;
71959;SDS011;59832;51.146;14.024;2023-12-29T01:18:41;1.33;;;1.13;;
71959;SDS011;59832;51.146;14.024;2023-12-29T01:21:08;1.55;;;1.10;;
71959;SDS011;59832;51.146;14.024;2023-12-29T01:23:35;2.20;;;1.00;;
71959;SDS011;59832;51.146;14.024;2023-12-29T01:26:01;1.25;;;1.08;;
71959;SDS011;59832;51.146;14.024;2023-12-29T01:28:28;1.63;;;1.20;;
71959;SDS011;59832;51.146;14.024;2023-12-29T01:30:55;1.42;;;0.95;;
71959;SDS011;59832;51.146;14.024;2023-12-29T01:33:22;1.20;;;1.10;;
71959;SDS011;59832;51.146;14.024;2023-12-29T01:35:48;1.40;;;1.00;;
71959;SDS011;59832;51.146;14.024;2023-12-29T01:38:15;1.20;;;1.08;;
71959;SDS011;59832;51.146;14.024;2023-12-29T01:40:42;1.42;;;1.00;;
71959;SDS011;59832;51.146;14.024;2023-12-29T01:43:10;1.30;;;0.90;;
71959;SDS011;59832;51.146;14.024;2023-12-29T01:45:37;1.48;;;1.13;;
71959;SDS011;59832;51.146;14.024;2023-12-29T01:48:18;1.10;;;1.00;;
71959;SDS011;59832;51.146;14.024;2023-12-29T01:50:45;0.70;;;0.70;;
71959;SDS011;59832;51.146;14.024;2023-12-29T01:53:11;1.10;;;0.90;;
71959;SDS011;59832;51.146;14.024;2023-12-29T01:55:38;1.20;;;0.90;;
71959;SDS011;59832;51.146;14.024;2023-12-29T01:58:05;1.10;;;1.00;;
71959;SDS011;59832;51.146;14.024;2023-12-29T02:00:32;0.98;;;0.95;;
71959;SDS011;59832;51.146;14.024;2023-12-29T02:05:26;1.42;;;0.90;;
71959;SDS011;59832;51.146;14.024;2023-12-29T02:07:55;2.03;;;0.90;;
71959;SDS011;59832;51.146;14.024;2023-12-29T02:10:22;0.80;;;0.80;;
71959;SDS011;59832;51.146;14.024;2023-12-29T02:12:50;0.90;;;0.80;;
71959;SDS011;59832;51.146;14.024;2023-12-29T02:15:16;0.80;;;0.80;;
71959;SDS011;59832;51.146;14.024;2023-12-29T02:17:44;0.75;;;0.70;;
71959;SDS011;59832;51.146;14.024;2023-12-29T02:20:14;2.63;;;0.80;;
71959;SDS011;59832;51.146;14.024;2023-12-29T02:22:41;0.68;;;0.60;;
71959;SDS011;59832;51.146;14.024;2023-12-29T02:25:07;0.90;;;0.70;;
71959;SDS011;59832;51.146;14.024;2023-12-29T02:30:30;1.77;;;0.80;;
71959;SDS011;59832;51.146;14.024;2023-12-29T02:33:05;0.90;;;0.65;;
71959;SDS011;59832;51.146;14.024;2023-12-29T02:35:38;1.40;;;0.77;;
71959;SDS011;59832;51.146;14.024;2023-12-29T02:38:07;0.75;;;0.50;;
71959;SDS011;59832;51.146;14.024;2023-12-29T02:40:34;0.65;;;0.65;;
71959;SDS011;59832;51.146;14.024;2023-12-29T02:43:01;0.90;;;0.77;;
71959;SDS011;59832;51.146;14.024;2023-12-29T02:45:27;0.60;;;0.60;;
71959;SDS011;59832;51.146;14.024;2023-12-29T02:47:54;0.70;;;0.70;;
71959;SDS011;59832;51.146;14.024;2023-12-29T02:50:21;0.80;;;0.80;;
71959;SDS011;59832;51.146;14.024;2023-12-29T02:52:48;0.82;;;0.50;;
71959;SDS011;59832;51.146;14.024;2023-12-29T02:55:14;0.73;;;0.65;;
71959;SDS011;59832;51.146;14.024;2023-12-29T02:57:41;0.50;;;0.50;;
71959;SDS011;59832;51.146;14.024;2023-12-29T03:00:08;0.55;;;0.55;;
71959;SDS011;59832;51.146;14.024;2023-12-29T03:02:35;1.15;;;0.60;;
71959;SDS011;59832;51.146;14.024;2023-12-29T03:05:01;0.40;;;0.40;;
71959;SDS011;59832;51.146;14.024;2023-12-29T03:07:28;0.50;;;0.50;;
71959;SDS011;59832;51.146;14.024;2023-12-29T03:09:55;0.40;;;0.40;;
71959;SDS011;59832;51.146;14.024;2023-12-29T03:12:21;0.50;;;0.50;;
71959;SDS011;59832;51.146;14.024;2023-12-29T03:14:48;0.52;;;0.50;;
71959;SDS011;59832;51.146;14.024;2023-12-29T03:17:14;0.45;;;0.32;;
71959;SDS011;59832;51.146;14.024;2023-12-29T03:19:41;0.43;;;0.43;;
71959;SDS011;59832;51.146;14.024;2023-12-29T03:22:09;2.10;;;0.50;;
71959;SDS011;59832;51.146;14.024;2023-12-29T03:24:36;0.40;;;0.40;;
71959;SDS011;59832;51.146;14.024;2023-12-29T03:29:30;0.45;;;0.45;;
71959;SDS011;59832;51.146;14.024;2023-12-29T03:31:56;0.50;;;0.50;;
71959;SDS011;59832;51.146;14.024;2023-12-29T03:34:23;0.45;;;0.38;;
71959;SDS011;59832;51.146;14.024;2023-12-29T03:36:50;0.50;;;0.50;;
71959;SDS011;59832;51.146;14.024;2023-12-29T03:39:16;0.87;;;0.53;;
71959;SDS011;59832;51.146;14.024;2023-12-29T03:41:43;0.40;;;0.40;;
71959;SDS011;59832;51.146;14.024;2023-12-29T03:44:09;0.38;;;0.38;;
71959;SDS011;59832;51.146;14.024;2023-12-29T03:46:36;0.40;;;0.40;;
71959;SDS011;59832;51.146;14.024;2023-12-29T03:49:02;0.52;;;0.50;;
71959;SDS011;59832;51.146;14.024;2023-12-29T03:51:29;0.40;;;0.40;;
71959;SDS011;59832;51.146;14.024;2023-12-29T03:53:56;1.13;;;0.50;;
71959;SDS011;59832;51.146;14.024;2023-12-29T03:56:24;0.50;;;0.40;;
71959;SDS011;59832;51.146;14.024;2023-12-29T03:58:51;0.40;;;0.40;;
71959;SDS011;59832;51.146;14.024;2023-12-29T04:01:18;1.30;;;0.40;;
71959;SDS011;59832;51.146;14.024;2023-12-29T04:03:46;0.82;;;0.40;;
71959;SDS011;59832;51.146;14.024;2023-12-29T04:06:13;0.50;;;0.40;;
71959;SDS011;59832;51.146;14.024;2023-12-29T04:08:39;0.40;;;0.40;;
71959;SDS011;59832;51.146;14.024;2023-12-29T04:11:06;0.40;;;0.40;;
71959;SDS011;59832;51.146;14.024;2023-12-29T04:13:32;0.40;;;0.40;;
71959;SDS011;59832;51.146;14.024;2023-12-29T04:15:59;0.45;;;0.43;;
71959;SDS011;59832;51.146;14.024;2023-12-29T04:18:25;0.40;;;0.40;;
71959;SDS011;59832;51.146;14.024;2023-12-29T04:20:52;0.50;;;0.50;;
71959;SDS011;59832;51.146;14.024;2023-12-29T04:23:19;0.63;;;0.50;;
71959;SDS011;59832;51.146;14.024;2023-12-29T04:25:45;0.80;;;0.80;;
71959;SDS011;59832;51.146;14.024;2023-12-29T04:28:12;0.43;;;0.43;;
71959;SDS011;59832;51.146;14.024;2023-12-29T04:30:39;0.73;;;0.50;;
71959;SDS011;59832;51.146;14.024;2023-12-29T04:33:06;0.87;;;0.53;;
71959;SDS011;59832;51.146;14.024;2023-12-29T04:35:32;0.50;;;0.50;;
71959;SDS011;59832;51.146;14.024;2023-12-29T04:37:59;0.30;;;0.30;;
71959;SDS011;59832;51.146;14.024;2023-12-29T04:40:26;0.57;;;0.57;;
71959;SDS011;59832;51.146;14.024;2023-12-29T04:42:53;0.47;;;0.40;;
71959;SDS011;59832;51.146;14.024;2023-12-29T04:45:20;0.50;;;0.50;;
71959;SDS011;59832;51.146;14.024;2023-12-29T04:47:47;1.58;;;0.65;;
71959;SDS011;59832;51.146;14.024;2023-12-29T04:50:13;0.73;;;0.73;;
71959;SDS011;59832;51.146;14.024;2023-12-29T04:52:40;0.60;;;0.60;;
71959;SDS011;59832;51.146;14.024;2023-12-29T04:55:07;0.80;;;0.80;;
71959;SDS011;59832;51.146;14.024;2023-12-29T04:57:34;0.63;;;0.60;;
71959;SDS011;59832;51.146;14.024;2023-12-29T05:00:00;0.60;;;0.60;;
71959;SDS011;59832;51.146;14.024;2023-12-29T05:02:27;1.00;;;0.63;;
71959;SDS011;59832;51.146;14.024;2023-12-29T05:04:54;0.77;;;0.60;;
71959;SDS011;59832;51.146;14.024;2023-12-29T05:07:21;0.95;;;0.70;;
71959;SDS011;59832;51.146;14.024;2023-12-29T05:09:48;0.80;;;0.70;;
71959;SDS011;59832;51.146;14.024;2023-12-29T05:12:14;0.60;;;0.60;;
71959;SDS011;59832;51.146;14.024;2023-12-29T05:14:41;1.57;;;0.90;;
71959;SDS011;59832;51.146;14.024;2023-12-29T05:17:07;0.70;;;0.70;;
71959;SDS011;59832;51.146;14.024;2023-12-29T05:19:35;0.80;;;0.80;;
71959;SDS011;59832;51.146;14.024;2023-12-29T05:22:01;1.73;;;0.98;;
71959;SDS011;59832;51.146;14.024;2023-12-29T05:24:28;0.90;;;0.90;;
71959;SDS011;59832;51.146;14.024;2023-12-29T05:26:54;0.63;;;0.55;;
71959;SDS011;59832;51.146;14.024;2023-12-29T05:29:21;2.72;;;0.82;;
71959;SDS011;59832;51.146;14.024;2023-12-29T05:31:47;0.70;;;0.60;;
71959;SDS011;59832;51.146;14.024;2023-12-29T05:34:14;0.95;;;0.90;;
71959;SDS011;59832;51.146;14.024;2023-12-29T05:36:41;1.33;;;0.90;;
71959;SDS011;59832;51.146;14.024;2023-12-29T05:39:11;1.75;;;0.80;;
71959;SDS011;59832;51.146;14.024;2023-12-29T05:41:37;0.85;;;0.82;;
71959;SDS011;59832;51.146;14.024;2023-12-29T05:44:04;1.05;;;0.95;;
71959;SDS011;59832;51.146;14.024;2023-12-29T05:46:30;2.43;;;1.00;;
71959;SDS011;59832;51.146;14.024;2023-12-29T05:48:57;0.80;;;0.80;;
71959;SDS011;59832;51.146;14.024;2023-12-29T05:51:23;0.93;;;0.87;;
71959;SDS011;59832;51.146;14.024;2023-12-29T05:53:50;1.95;;;0.90;;
71959;SDS011;59832;51.146;14.024;2023-12-29T05:56:16;1.70;;;0.85;;
71959;SDS011;59832;51.146;14.024;2023-12-29T05:58:43;1.75;;;0.98;;
71959;SDS011;59832;51.146;14.024;2023-12-29T06:01:10;1.45;;;1.10;;
71959;SDS011;59832;51.146;14.024;2023-12-29T06:03:37;2.25;;;0.98;;
71959;SDS011;59832;51.146;14.024;2023-12-29T06:06:03;0.97;;;0.90;;
71959;SDS011;59832;51.146;14.024;2023-12-29T06:08:30;1.77;;;1.20;;
71959;SDS011;59832;51.146;14.024;2023-12-29T06:10:57;3.60;;;1.00;;
71959;SDS011;59832;51.146;14.024;2023-12-29T06:13:23;0.85;;;0.77;;
71959;SDS011;59832;51.146;14.024;2023-12-29T06:15:50;1.35;;;1.02;;
71959;SDS011;59832;51.146;14.024;2023-12-29T06:18:16;1.73;;;0.80;;
71959;SDS011;59832;51.146;14.024;2023-12-29T06:20:43;1.40;;;1.00;;
71959;SDS011;59832;51.146;14.024;2023-12-29T06:23:09;1.10;;;0.98;;
71959;SDS011;59832;51.146;14.024;2023-12-29T06:25:36;1.70;;;1.10;;
71959;SDS011;59832;51.146;14.024;2023-12-29T06:28:05;2.33;;;1.10;;
71959;SDS011;59832;51.146;14.024;2023-12-29T06:30:33;1.85;;;1.10;;
71959;SDS011;59832;51.146;14.024;2023-12-29T06:33:00;1.23;;;1.13;;
71959;SDS011;59832;51.146;14.024;2023-12-29T06:35:26;2.08;;;1.27;;
71959;SDS011;59832;51.146;14.024;2023-12-29T06:37:53;2.33;;;1.38;;
71959;SDS011;59832;51.146;14.024;2023-12-29T06:40:19;1.85;;;1.25;;
71959;SDS011;59832;51.146;14.024;2023-12-29T06:42:46;1.53;;;1.40;;
71959;SDS011;59832;51.146;14.024;2023-12-29T06:45:12;1.58;;;1.27;;
71959;SDS011;59832;51.146;14.024;2023-12-29T06:47:39;1.17;;;1.10;;
71959;SDS011;59832;51.146;14.024;2023-12-29T06:50:06;1.45;;;1.08;;
71959;SDS011;59832;51.146;14.024;2023-12-29T06:52:33;2.03;;;1.10;;
71959;SDS011;59832;51.146;14.024;2023-12-29T06:55:00;1.20;;;1.10;;
71959;SDS011;59832;51.146;14.024;2023-12-29T06:57:28;1.30;;;1.20;;
71959;SDS011;59832;51.146;14.024;2023-12-29T06:59:54;1.63;;;1.00;;
71959;SDS011;59832;51.146;14.024;2023-12-29T07:02:21;3.77;;;1.30;;
71959;SDS011;59832;51.146;14.024;2023-12-29T07:04:48;1.92;;;1.17;;
71959;SDS011;59832;51.146;14.024;2023-12-29T07:07:14;1.40;;;1.30;;
71959;SDS011;59832;51.146;14.024;2023-12-29T07:09:41;1.42;;;1.33;;
71959;SDS011;59832;51.146;14.024;2023-12-29T07:12:08;1.07;;;1.00;;
71959;SDS011;59832;51.146;14.024;2023-12-29T07:14:34;1.63;;;1.05;;
71959;SDS011;59832;51.146;14.024;2023-12-29T07:17:02;1.00;;;0.90;;
71959;SDS011;59832;51.146;14.024;2023-12-29T07:19:29;1.90;;;1.38;;
71959;SDS011;59832;51.146;14.024;2023-12-29T07:22:03;1.83;;;1.60;;
71959;SDS011;59832;51.146;14.024;2023-12-29T07:24:34;2.22;;;1.73;;
71959;SDS011;59832;51.146;14.024;2023-12-29T07:27:03;3.13;;;1.60;;
71959;SDS011;59832;51.146;14.024;2023-12-29T07:29:30;2.80;;;1.60;;
71959;SDS011;59832;51.146;14.024;2023-12-29T07:31:57;1.48;;;1.38;;
71959;SDS011;59832;51.146;14.024;2023-12-29T07:34:25;1.17;;;1.08;;
71959;SDS011;59832;51.146;14.024;2023-12-29T07:36:52;1.63;;;1.17;;
71959;SDS011;59832;51.146;14.024;2023-12-29T07:39:19;2.20;;;1.27;;
71959;SDS011;59832;51.146;14.024;2023-12-29T07:41:46;1.20;;;1.10;;
71959;SDS011;59832;51.146;14.024;2023-12-29T07:44:14;1.95;;;1.10;;
71959;SDS011;59832;51.146;14.024;2023-12-29T07:46:43;1.67;;;1.10;;
71959;SDS011;59832;51.146;14.024;2023-12-29T07:49:10;2.45;;;1.20;;
71959;SDS011;59832;51.146;14.024;2023-12-29T07:51:40;1.48;;;1.10;;
71959;SDS011;59832;51.146;14.024;2023-12-29T07:54:09;1.10;;;1.00;;
71959;SDS011;59832;51.146;14.024;2023-12-29T07:56:35;1.57;;;1.43;;
71959;SDS011;59832;51.146;14.024;2023-12-29T07:59:04;1.38;;;1.20;;
71959;SDS011;59832;51.146;14.024;2023-12-29T08:01:31;1.98;;;1.20;;
71959;SDS011;59832;51.146;14.024;2023-12-29T08:03:57;2.67;;;1.40;;
71959;SDS011;59832;51.146;14.024;2023-12-29T08:06:24;2.60;;;1.40;;
71959;SDS011;59832;51.146;14.024;2023-12-29T08:08:51;1.42;;;1.08;;
71959;SDS011;59832;51.146;14.024;2023-12-29T08:11:17;1.67;;;1.13;;
71959;SDS011;59832;51.146;14.024;2023-12-29T08:13:44;1.37;;;1.20;;
71959;SDS011;59832;51.146;14.024;2023-12-29T08:16:12;2.95;;;1.45;;
71959;SDS011;59832;51.146;14.024;2023-12-29T08:18:39;3.07;;;1.40;;
71959;SDS011;59832;51.146;14.024;2023-12-29T08:21:06;2.70;;;1.45;;
71959;SDS011;59832;51.146;14.024;2023-12-29T08:23:33;1.60;;;1.50;;
71959;SDS011;59832;51.146;14.024;2023-12-29T08:25:59;1.83;;;1.13;;
71959;SDS011;59832;51.146;14.024;2023-12-29T08:28:29;2.08;;;1.15;;
71959;SDS011;59832;51.146;14.024;2023-12-29T08:30:55;1.73;;;1.23;;
71959;SDS011;59832;51.146;14.024;2023-12-29T08:33:23;2.42;;;1.65;;
71959;SDS011;59832;51.146;14.024;2023-12-29T08:35:49;2.22;;;1.40;;
71959;SDS011;59832;51.146;14.024;2023-12-29T08:38:16;1.67;;;1.20;;
71959;SDS011;59832;51.146;14.024;2023-12-29T08:40:43;2.17;;;1.40;;
71959;SDS011;59832;51.146;14.024;2023-12-29T08:43:10;1.90;;;1.17;;
71959;SDS011;59832;51.146;14.024;2023-12-29T08:45:36;2.30;;;1.23;;
71959;SDS011;59832;51.146;14.024;2023-12-29T08:48:04;1.98;;;1.40;;
71959;SDS011;59832;51.146;14.024;2023-12-29T08:52:58;2.33;;;1.35;;
71959;SDS011;59832;51.146;14.024;2023-12-29T08:55:25;1.90;;;1.60;;
71959;SDS011;59832;51.146;14.024;2023-12-29T08:57:51;2.00;;;1.80;;
71959;SDS011;59832;51.146;14.024;2023-12-29T09:00:18;1.63;;;1.10;;
71959;SDS011;59832;51.146;14.024;2023-12-29T09:02:44;2.05;;;1.10;;
71959;SDS011;59832;51.146;14.024;2023-12-29T09:05:12;2.28;;;1.27;;
71959;SDS011;59832;51.146;14.024;2023-12-29T09:07:39;1.45;;;1.13;;
71959;SDS011;59832;51.146;14.024;2023-12-29T09:10:06;1.83;;;1.20;;
71959;SDS011;59832;51.146;14.024;2023-12-29T09:12:39;1.85;;;1.25;;
71959;SDS011;59832;51.146;14.024;2023-12-29T09:15:06;5.00;;;1.23;;
71959;SDS011;59832;51.146;14.024;2023-12-29T09:17:33;1.70;;;1.00;;
71959;SDS011;59832;51.146;14.024;2023-12-29T09:20:00;1.38;;;1.08;;
71959;SDS011;59832;51.146;14.024;2023-12-29T09:22:35;2.80;;;1.00;;
71959;SDS011;59832;51.146;14.024;2023-12-29T09:25:02;1.80;;;0.90;;
71959;SDS011;59832;51.146;14.024;2023-12-29T09:27:29;2.00;;;1.30;;
71959;SDS011;59832;51.146;14.024;2023-12-29T09:29:55;2.22;;;1.10;;
71959;SDS011;59832;51.146;14.024;2023-12-29T09:32:22;3.28;;;1.30;;
71959;SDS011;59832;51.146;14.024;2023-12-29T09:34:48;2.03;;;1.10;;
71959;SDS011;59832;51.146;14.024;2023-12-29T09:37:15;1.60;;;1.20;;
71959;SDS011;59832;51.146;14.024;2023-12-29T09:39:41;1.08;;;0.98;;
71959;SDS011;59832;51.146;14.024;2023-12-29T09:42:09;2.60;;;1.13;;
71959;SDS011;59832;51.146;14.024;2023-12-29T09:44:44;2.05;;;1.08;;
71959;SDS011;59832;51.146;14.024;2023-12-29T09:47:15;1.85;;;1.30;;
71959;SDS011;59832;51.146;14.024;2023-12-29T09:49:49;1.48;;;1.05;;
71959;SDS011;59832;51.146;14.024;2023-12-29T09:52:16;1.67;;;1.00;;
71959;SDS011;59832;51.146;14.024;2023-12-29T09:54:43;1.95;;;1.17;;
71959;SDS011;59832;51.146;14.024;2023-12-29T09:57:10;2.15;;;1.10;;
71959;SDS011;59832;51.146;14.024;2023-12-29T09:59:37;2.13;;;0.90;;
71959;SDS011;59832;51.146;14.024;2023-12-29T10:02:14;1.52;;;0.90;;
71959;SDS011;59832;51.146;14.024;2023-12-29T10:04:42;1.77;;;1.00;;
71959;SDS011;59832;51.146;14.024;2023-12-29T10:07:10;1.52;;;1.08;;
71959;SDS011;59832;51.146;14.024;2023-12-29T10:09:41;1.90;;;1.00;;
71959;SDS011;59832;51.146;14.024;2023-12-29T10:23:06;3.28;;;1.30;;
71959;SDS011;59832;51.146;14.024;2023-12-29T10:25:40;2.45;;;1.52;;
71959;SDS011;59832;51.146;14.024;2023-12-29T10:28:07;1.48;;;1.05;;
71959;SDS011;59832;51.146;14.024;2023-12-29T10:30:36;2.30;;;1.20;;
71959;SDS011;59832;51.146;14.024;2023-12-29T10:33:04;2.60;;;1.42;;
71959;SDS011;59832;51.146;14.024;2023-12-29T10:35:32;1.15;;;1.00;;
71959;SDS011;59832;51.146;14.024;2023-12-29T10:38:08;2.03;;;1.20;;
71959;SDS011;59832;51.146;14.024;2023-12-29T10:40:39;1.50;;;1.20;;
71959;SDS011;59832;51.146;14.024;2023-12-29T10:43:06;1.63;;;1.10;;
71959;SDS011;59832;51.146;14.024;2023-12-29T10:45:35;1.15;;;1.00;;
71959;SDS011;59832;51.146;14.024;2023-12-29T10:48:03;2.03;;;0.90;;
71959;SDS011;59832;51.146;14.024;2023-12-29T10:50:30;1.42;;;1.05;;
71959;SDS011;59832;51.146;14.024;2023-12-29T10:53:15;1.52;;;1.13;;
71959;SDS011;59832;51.146;14.024;2023-12-29T10:55:45;1.55;;;1.15;;
71959;SDS011;59832;51.146;14.024;2023-12-29T10:58:11;1.40;;;0.90;;
71959;SDS011;59832;51.146;14.024;2023-12-29T11:00:39;1.75;;;1.17;;
71959;SDS011;59832;51.146;14.024;2023-12-29T11:03:06;1.10;;;1.00;;
71959;SDS011;59832;51.146;14.024;2023-12-29T11:05:33;2.67;;;1.55;;
71959;SDS011;59832;51.146;14.024;2023-12-29T11:08:00;2.70;;;1.00;;
71959;SDS011;59832;51.146;14.024;2023-12-29T11:10:27;1.20;;;1.10;;
71959;SDS011;59832;51.146;14.024;2023-12-29T11:12:55;1.80;;;1.20;;
71959;SDS011;59832;51.146;14.024;2023-12-29T11:15:23;2.28;;;1.30;;
71959;SDS011;59832;51.146;14.024;2023-12-29T11:17:50;2.03;;;1.15;;
71959;SDS011;59832;51.146;14.024;2023-12-29T11:20:18;1.80;;;1.10;;
71959;SDS011;59832;51.146;14.024;2023-12-29T11:22:47;2.67;;;0.90;;
71959;SDS011;59832;51.146;14.024;2023-12-29T11:25:14;1.40;;;1.00;;
71959;SDS011;59832;51.146;14.024;2023-12-29T11:27:42;2.35;;;1.40;;
71959;SDS011;59832;51.146;14.024;2023-12-29T11:30:09;4.00;;;1.40;;
71959;SDS011;59832;51.146;14.024;2023-12-29T11:32:53;3.65;;;1.30;;
71959;SDS011;59832;51.146;14.024;2023-12-29T11:35:28;2.88;;;1.10;;
71959;SDS011;59832;51.146;14.024;2023-12-29T11:41:13;2.90;;;0.98;;
71959;SDS011;59832;51.146;14.024;2023-12-29T11:44:00;2.67;;;1.10;;
71959;SDS011;59832;51.146;14.024;2023-12-29T11:46:40;1.20;;;0.93;;
71959;SDS011;59832;51.146;14.024;2023-12-29T11:49:10;1.60;;;1.13;;
71959;SDS011;59832;51.146;14.024;2023-12-29T11:54:07;3.22;;;0.80;;
71959;SDS011;59832;51.146;14.024;2023-12-29T11:56:38;1.88;;;1.10;;
71959;SDS011;59832;51.146;14.024;2023-12-29T11:59:14;2.72;;;1.17;;
71959;SDS011;59832;51.146;14.024;2023-12-29T12:01:42;2.30;;;0.80;;
71959;SDS011;59832;51.146;14.024;2023-12-29T12:07:12;1.33;;;0.90;;
71959;SDS011;59832;51.146;14.024;2023-12-29T12:09:41;1.58;;;0.90;;
71959;SDS011;59832;51.146;14.024;2023-12-29T12:12:08;1.50;;;0.93;;
71959;SDS011;59832;51.146;14.024;2023-12-29T12:15:09;2.40;;;1.25;;
71959;SDS011;59832;51.146;14.024;2023-12-29T12:17:32;1.83;;;1.10;;
71959;SDS011;59832;51.146;14.024;2023-12-29T12:20:09;1.42;;;0.95;;
71959;SDS011;59832;51.146;14.024;2023-12-29T12:22:36;2.47;;;1.00;;
71959;SDS011;59832;51.146;14.024;2023-12-29T12:25:05;2.63;;;1.10;;
71959;SDS011;59832;51.146;14.024;2023-12-29T12:27:33;3.88;;;1.20;;
71959;SDS011;59832;51.146;14.024;2023-12-29T12:30:00;1.57;;;1.20;;
71959;SDS011;59832;51.146;14.024;2023-12-29T12:32:27;1.90;;;1.33;;
71959;SDS011;59832;51.146;14.024;2023-12-29T12:34:55;1.65;;;0.93;;
71959;SDS011;59832;51.146;14.024;2023-12-29T12:37:23;1.65;;;0.90;;
71959;SDS011;59832;51.146;14.024;2023-12-29T12:39:52;4.13;;;2.70;;
71959;SDS011;59832;51.146;14.024;2023-12-29T12:42:19;1.40;;;1.23;;
71959;SDS011;59832;51.146;14.024;2023-12-29T12:44:56;1.42;;;1.00;;
71959;SDS011;59832;51.146;14.024;2023-12-29T12:47:37;1.85;;;1.55;;
71959;SDS011;59832;51.146;14.024;2023-12-29T12:50:12;1.70;;;1.33;;
71959;SDS011;59832;51.146;14.024;2023-12-29T12:52:42;2.30;;;1.15;;
71959;SDS011;59832;51.146;14.024;2023-12-29T12:55:09;1.77;;;1.13;;
71959;SDS011;59832;51.146;14.024;2023-12-29T12:57:37;1.02;;;0.93;;
71959;SDS011;59832;51.146;14.024;2023-12-29T13:00:04;2.15;;;1.25;;
71959;SDS011;59832;51.146;14.024;2023-12-29T13:02:32;4.53;;;1.17;;
71959;SDS011;59832;51.146;14.024;2023-12-29T13:05:00;1.23;;;0.80;;
71959;SDS011;59832;51.146;14.024;2023-12-29T13:07:28;1.92;;;1.10;;
71959;SDS011;59832;51.146;14.024;2023-12-29T13:12:22;1.27;;;1.00;;
71959;SDS011;59832;51.146;14.024;2023-12-29T13:14:49;1.75;;;1.10;;
71959;SDS011;59832;51.146;14.024;2023-12-29T13:17:15;2.25;;;1.10;;
71959;SDS011;59832;51.146;14.024;2023-12-29T13:19:43;1.88;;;1.40;;
71959;SDS011;59832;51.146;14.024;2023-12-29T13:22:11;3.42;;;1.27;;
71959;SDS011;59832;51.146;14.024;2023-12-29T13:24:45;2.50;;;1.20;;
71959;SDS011;59832;51.146;14.024;2023-12-29T13:27:12;1.52;;;1.10;;
71959;SDS011;59832;51.146;14.024;2023-12-29T13:32:07;2.22;;;1.00;;
71959;SDS011;59832;51.146;14.024;2023-12-29T13:37:43;1.75;;;0.98;;
71959;SDS011;59832;51.146;14.024;2023-12-29T13:43:10;1.88;;;1.13;;
71959;SDS011;59832;51.146;14.024;2023-12-29T13:45:41;2.13;;;1.00;;
71959;SDS011;59832;51.146;14.024;2023-12-29T13:48:09;2.55;;;1.00;;
71959;SDS011;59832;51.146;14.024;2023-12-29T13:50:37;1.40;;;1.30;;
71959;SDS011;59832;51.146;14.024;2023-12-29T13:53:07;0.70;;;0.70;;
71959;SDS011;59832;51.146;14.024;2023-12-29T13:55:36;2.22;;;0.88;;
71959;SDS011;59832;51.146;14.024;2023-12-29T13:58:08;1.33;;;0.80;;
71959;SDS011;59832;51.146;14.024;2023-12-29T14:00:35;1.33;;;0.80;;
71959;SDS011;59832;51.146;14.024;2023-12-29T14:03:14;1.23;;;0.77;;
71959;SDS011;59832;51.146;14.024;2023-12-29T14:05:52;0.90;;;0.70;;
71959;SDS011;59832;51.146;14.024;2023-12-29T14:08:23;2.03;;;1.10;;
71959;SDS011;59832;51.146;14.024;2023-12-29T14:10:51;0.93;;;0.82;;
71959;SDS011;59832;51.146;14.024;2023-12-29T14:13:18;1.00;;;0.80;;
71959;SDS011;59832;51.146;14.024;2023-12-29T14:15:45;1.08;;;0.90;;
71959;SDS011;59832;51.146;14.024;2023-12-29T14:21:29;1.48;;;0.85;;
71959;SDS011;59832;51.146;14.024;2023-12-29T14:24:10;1.35;;;0.80;;
71959;SDS011;59832;51.146;14.024;2023-12-29T14:29:11;1.02;;;0.80;;
71959;SDS011;59832;51.146;14.024;2023-12-29T14:31:39;1.25;;;0.80;;
71959;SDS011;59832;51.146;14.024;2023-12-29T14:34:07;1.92;;;0.90;;
71959;SDS011;59832;51.146;14.024;2023-12-29T14:36:35;1.58;;;0.90;;
71959;SDS011;59832;51.146;14.024;2023-12-29T14:39:03;1.10;;;0.88;;
71959;SDS011;59832;51.146;14.024;2023-12-29T14:41:30;1.38;;;0.85;;
71959;SDS011;59832;51.146;14.024;2023-12-29T14:43:57;3.00;;;1.10;;
71959;SDS011;59832;51.146;14.024;2023-12-29T14:46:23;3.63;;;1.07;;
71959;SDS011;59832;51.146;14.024;2023-12-29T14:48:50;2.00;;;0.80;;
71959;SDS011;59832;51.146;14.024;2023-12-29T14:51:18;1.00;;;0.90;;
71959;SDS011;59832;51.146;14.024;2023-12-29T14:53:45;1.00;;;0.90;;
71959;SDS011;59832;51.146;14.024;2023-12-29T14:56:14;1.30;;;1.17;;
71959;SDS011;59832;51.146;14.024;2023-12-29T14:58:41;2.58;;;1.10;;
71959;SDS011;59832;51.146;14.024;2023-12-29T15:01:08;1.20;;;1.00;;
71959;SDS011;59832;51.146;14.024;2023-12-29T15:03:35;1.60;;;1.13;;
71959;SDS011;59832;51.146;14.024;2023-12-29T15:08:30;1.23;;;1.13;;
71959;SDS011;59832;51.146;14.024;2023-12-29T15:11:01;1.35;;;0.90;;
71959;SDS011;59832;51.146;14.024;2023-12-29T15:13:29;1.02;;;0.93;;
71959;SDS011;59832;51.146;14.024;2023-12-29T15:18:27;0.80;;;0.70;;
71959;SDS011;59832;51.146;14.024;2023-12-29T15:20:57;2.03;;;1.27;;
71959;SDS011;59832;51.146;14.024;2023-12-29T15:23:23;1.10;;;1.00;;
71959;SDS011;59832;51.146;14.024;2023-12-29T15:25:50;2.23;;;1.03;;
71959;SDS011;59832;51.146;14.024;2023-12-29T15:28:17;1.03;;;0.93;;